sensor_id;sensor_type;location;lat;lon;timestamp;P1;durP1;ratioP1;P2;durP2;ratioP2
27491;SDS011;14927;51.210;6.838;2022-08-11T00:01:58;12.98;;;2.50;;
27491;SDS011;14927;51.210;6.838;2022-08-11T00:04:43;7.18;;;2.50;;
27491;SDS011;14927;51.210;6.838;2022-08-11T00:07:28;4.88;;;2.60;;
27491;SDS011;14927;51.210;6.838;2022-08-11T00:10:15;4.50;;;2.38;;
27491;SDS011;14927;51.210;6.838;2022-08-11T00:13:03;6.25;;;2.63;;
27491;SDS011;14927;51.210;6.838;2022-08-11T00:15:50;4.18;;;2.10;;
27491;SDS011;14927;51.210;6.838;2022-08-11T00:18:40;4.18;;;2.00;;
27491;SDS011;14927;51.210;6.838;2022-08-11T00:21:28;7.07;;;2.08;;
27491;SDS011;14927;51.210;6.838;2022-08-11T00:24:14;6.75;;;2.47;;
27491;SDS011;14927;51.210;6.838;2022-08-11T00:27:00;14.35;;;2.30;;
27491;SDS011;14927;51.210;6.838;2022-08-11T00:29:52;4.68;;;1.83;;
27491;SDS011;14927;51.210;6.838;2022-08-11T00:32:38;4.07;;;2.10;;
27491;SDS011;14927;51.210;6.838;2022-08-11T00:35:27;6.30;;;2.85;;
27491;SDS011;14927;51.210;6.838;2022-08-11T00:38:14;3.60;;;2.00;;
27491;SDS011;14927;51.210;6.838;2022-08-11T00:50:40;2.40;;;2.00;;
27491;SDS011;14927;51.210;6.838;2022-08-11T00:57:18;6.70;;;1.85;;
27491;SDS011;14927;51.210;6.838;2022-08-11T01:00:31;3.40;;;1.88;;
27491;SDS011;14927;51.210;6.838;2022-08-11T01:10:29;5.43;;;2.25;;
27491;SDS011;14927;51.210;6.838;2022-08-11T01:14:10;5.53;;;2.10;;
27491;SDS011;14927;51.210;6.838;2022-08-11T01:46:31;4.55;;;2.10;;
27491;SDS011;14927;51.210;6.838;2022-08-11T01:49:39;5.63;;;2.00;;
27491;SDS011;14927;51.210;6.838;2022-08-11T01:52:43;5.15;;;2.00;;
27491;SDS011;14927;51.210;6.838;2022-08-11T01:55:39;4.40;;;2.40;;
27491;SDS011;14927;51.210;6.838;2022-08-11T01:59:09;8.45;;;2.30;;
27491;SDS011;14927;51.210;6.838;2022-08-11T02:08:41;6.63;;;2.78;;
27491;SDS011;14927;51.210;6.838;2022-08-11T02:11:40;7.60;;;2.60;;
27491;SDS011;14927;51.210;6.838;2022-08-11T02:14:41;5.65;;;3.15;;
27491;SDS011;14927;51.210;6.838;2022-08-11T02:20:44;3.58;;;2.25;;
27491;SDS011;14927;51.210;6.838;2022-08-11T02:23:58;4.47;;;2.35;;
27491;SDS011;14927;51.210;6.838;2022-08-11T02:27:35;8.18;;;2.60;;
27491;SDS011;14927;51.210;6.838;2022-08-11T02:30:05;8.80;;;2.38;;
27491;SDS011;14927;51.210;6.838;2022-08-11T02:32:56;4.20;;;2.70;;
27491;SDS011;14927;51.210;6.838;2022-08-11T02:36:21;5.28;;;2.42;;
27491;SDS011;14927;51.210;6.838;2022-08-11T02:39:21;3.15;;;2.50;;
27491;SDS011;14927;51.210;6.838;2022-08-11T02:45:41;3.63;;;2.53;;
27491;SDS011;14927;51.210;6.838;2022-08-11T02:52:52;8.95;;;2.97;;
27491;SDS011;14927;51.210;6.838;2022-08-11T02:56:06;6.43;;;3.47;;
27491;SDS011;14927;51.210;6.838;2022-08-11T03:02:54;9.48;;;3.20;;
27491;SDS011;14927;51.210;6.838;2022-08-11T03:09:16;7.35;;;2.47;;
27491;SDS011;14927;51.210;6.838;2022-08-11T03:15:19;6.45;;;3.20;;
27491;SDS011;14927;51.210;6.838;2022-08-11T03:22:21;4.05;;;2.78;;
27491;SDS011;14927;51.210;6.838;2022-08-11T03:27:51;6.68;;;3.08;;
27491;SDS011;14927;51.210;6.838;2022-08-11T03:34:24;9.32;;;3.17;;
27491;SDS011;14927;51.210;6.838;2022-08-11T03:37:34;8.10;;;2.92;;
27491;SDS011;14927;51.210;6.838;2022-08-11T03:54:24;6.70;;;2.97;;
27491;SDS011;14927;51.210;6.838;2022-08-11T04:07:55;8.60;;;3.03;;
27491;SDS011;14927;51.210;6.838;2022-08-11T04:11:15;7.43;;;2.90;;
27491;SDS011;14927;51.210;6.838;2022-08-11T04:14:11;4.65;;;3.03;;
27491;SDS011;14927;51.210;6.838;2022-08-11T04:24:20;7.05;;;3.22;;
27491;SDS011;14927;51.210;6.838;2022-08-11T04:31:20;6.13;;;2.92;;
27491;SDS011;14927;51.210;6.838;2022-08-11T04:51:37;9.68;;;3.35;;
27491;SDS011;14927;51.210;6.838;2022-08-11T04:59:14;7.88;;;3.08;;
27491;SDS011;14927;51.210;6.838;2022-08-11T05:10:24;7.90;;;3.13;;
27491;SDS011;14927;51.210;6.838;2022-08-11T05:14:13;8.98;;;3.40;;
27491;SDS011;14927;51.210;6.838;2022-08-11T05:17:36;11.77;;;3.15;;
27491;SDS011;14927;51.210;6.838;2022-08-11T05:20:51;12.75;;;3.22;;
27491;SDS011;14927;51.210;6.838;2022-08-11T05:24:10;10.77;;;3.47;;
27491;SDS011;14927;51.210;6.838;2022-08-11T05:27:22;9.32;;;3.22;;
27491;SDS011;14927;51.210;6.838;2022-08-11T05:30:38;13.27;;;4.07;;
27491;SDS011;14927;51.210;6.838;2022-08-11T05:33:46;7.60;;;3.83;;
27491;SDS011;14927;51.210;6.838;2022-08-11T05:37:01;8.13;;;3.85;;
27491;SDS011;14927;51.210;6.838;2022-08-11T05:39:54;8.60;;;3.22;;
27491;SDS011;14927;51.210;6.838;2022-08-11T05:43:13;8.98;;;3.47;;
27491;SDS011;14927;51.210;6.838;2022-08-11T05:46:17;88.10;;;9.32;;
27491;SDS011;14927;51.210;6.838;2022-08-11T05:49:22;43.65;;;7.22;;
27491;SDS011;14927;51.210;6.838;2022-08-11T05:52:31;17.42;;;3.33;;
27491;SDS011;14927;51.210;6.838;2022-08-11T05:55:37;9.07;;;3.22;;
27491;SDS011;14927;51.210;6.838;2022-08-11T05:58:50;8.48;;;3.30;;
27491;SDS011;14927;51.210;6.838;2022-08-11T06:01:36;17.13;;;4.00;;
27491;SDS011;14927;51.210;6.838;2022-08-11T06:04:22;8.10;;;3.00;;
27491;SDS011;14927;51.210;6.838;2022-08-11T06:07:08;8.02;;;3.10;;
27491;SDS011;14927;51.210;6.838;2022-08-11T06:09:55;3.63;;;2.65;;
27491;SDS011;14927;51.210;6.838;2022-08-11T06:12:42;4.82;;;2.60;;
27491;SDS011;14927;51.210;6.838;2022-08-11T06:15:28;8.43;;;2.90;;
27491;SDS011;14927;51.210;6.838;2022-08-11T06:18:16;4.95;;;2.60;;
27491;SDS011;14927;51.210;6.838;2022-08-11T06:21:07;6.30;;;2.90;;
27491;SDS011;14927;51.210;6.838;2022-08-11T06:23:53;6.80;;;3.17;;
27491;SDS011;14927;51.210;6.838;2022-08-11T06:26:57;6.22;;;2.95;;
27491;SDS011;14927;51.210;6.838;2022-08-11T06:29:50;7.90;;;2.90;;
27491;SDS011;14927;51.210;6.838;2022-08-11T06:32:37;5.18;;;3.17;;
27491;SDS011;14927;51.210;6.838;2022-08-11T06:42:02;7.63;;;2.55;;
27491;SDS011;14927;51.210;6.838;2022-08-11T06:45:00;7.82;;;2.83;;
27491;SDS011;14927;51.210;6.838;2022-08-11T06:48:23;11.10;;;3.70;;
27491;SDS011;14927;51.210;6.838;2022-08-11T06:51:08;10.05;;;2.70;;
27491;SDS011;14927;51.210;6.838;2022-08-11T06:53:57;6.55;;;3.03;;
27491;SDS011;14927;51.210;6.838;2022-08-11T06:56:45;6.53;;;2.40;;
27491;SDS011;14927;51.210;6.838;2022-08-11T06:59:50;4.43;;;2.60;;
27491;SDS011;14927;51.210;6.838;2022-08-11T07:03:11;7.22;;;2.45;;
27491;SDS011;14927;51.210;6.838;2022-08-11T07:06:02;6.90;;;2.58;;
27491;SDS011;14927;51.210;6.838;2022-08-11T07:13:07;9.50;;;2.75;;
27491;SDS011;14927;51.210;6.838;2022-08-11T07:16:17;4.38;;;2.45;;
27491;SDS011;14927;51.210;6.838;2022-08-11T07:19:19;5.65;;;2.75;;
27491;SDS011;14927;51.210;6.838;2022-08-11T07:22:27;8.95;;;2.72;;
27491;SDS011;14927;51.210;6.838;2022-08-11T07:25:35;4.82;;;1.95;;
27491;SDS011;14927;51.210;6.838;2022-08-11T07:28:44;5.28;;;2.25;;
27491;SDS011;14927;51.210;6.838;2022-08-11T07:31:45;3.80;;;2.15;;
27491;SDS011;14927;51.210;6.838;2022-08-11T07:34:34;5.88;;;2.08;;
27491;SDS011;14927;51.210;6.838;2022-08-11T07:37:21;12.40;;;2.40;;
27491;SDS011;14927;51.210;6.838;2022-08-11T07:40:07;6.57;;;2.08;;
27491;SDS011;14927;51.210;6.838;2022-08-11T07:42:53;2.78;;;2.13;;
27491;SDS011;14927;51.210;6.838;2022-08-11T07:45:41;5.00;;;2.25;;
27491;SDS011;14927;51.210;6.838;2022-08-11T07:48:46;8.63;;;2.50;;
27491;SDS011;14927;51.210;6.838;2022-08-11T07:51:50;5.22;;;2.40;;
27491;SDS011;14927;51.210;6.838;2022-08-11T07:55:06;5.30;;;2.03;;
27491;SDS011;14927;51.210;6.838;2022-08-11T07:57:58;8.40;;;2.35;;
27491;SDS011;14927;51.210;6.838;2022-08-11T08:01:02;5.63;;;2.22;;
27491;SDS011;14927;51.210;6.838;2022-08-11T08:04:06;9.93;;;2.10;;
27491;SDS011;14927;51.210;6.838;2022-08-11T08:07:12;4.50;;;1.40;;
27491;SDS011;14927;51.210;6.838;2022-08-11T08:10:23;15.90;;;2.28;;
27491;SDS011;14927;51.210;6.838;2022-08-11T08:13:27;7.00;;;2.17;;
27491;SDS011;14927;51.210;6.838;2022-08-11T08:16:30;11.20;;;2.15;;
27491;SDS011;14927;51.210;6.838;2022-08-11T08:19:34;4.25;;;2.20;;
27491;SDS011;14927;51.210;6.838;2022-08-11T08:22:19;4.72;;;1.95;;
27491;SDS011;14927;51.210;6.838;2022-08-11T08:25:04;3.47;;;1.95;;
27491;SDS011;14927;51.210;6.838;2022-08-11T08:27:50;3.05;;;1.88;;
27491;SDS011;14927;51.210;6.838;2022-08-11T08:30:36;3.25;;;1.90;;
27491;SDS011;14927;51.210;6.838;2022-08-11T08:33:32;5.97;;;2.10;;
27491;SDS011;14927;51.210;6.838;2022-08-11T08:36:16;3.85;;;1.65;;
27491;SDS011;14927;51.210;6.838;2022-08-11T08:39:06;2.78;;;1.98;;
27491;SDS011;14927;51.210;6.838;2022-08-11T08:41:51;2.25;;;1.70;;
27491;SDS011;14927;51.210;6.838;2022-08-11T08:44:40;11.02;;;2.15;;
27491;SDS011;14927;51.210;6.838;2022-08-11T08:47:29;5.10;;;1.80;;
27491;SDS011;14927;51.210;6.838;2022-08-11T08:50:19;5.75;;;2.28;;
27491;SDS011;14927;51.210;6.838;2022-08-11T08:53:06;6.68;;;2.15;;
27491;SDS011;14927;51.210;6.838;2022-08-11T08:55:51;5.43;;;1.73;;
27491;SDS011;14927;51.210;6.838;2022-08-11T08:58:39;4.63;;;1.90;;
27491;SDS011;14927;51.210;6.838;2022-08-11T09:01:26;4.82;;;1.80;;
27491;SDS011;14927;51.210;6.838;2022-08-11T09:04:16;5.50;;;1.65;;
27491;SDS011;14927;51.210;6.838;2022-08-11T09:07:06;2.42;;;1.50;;
27491;SDS011;14927;51.210;6.838;2022-08-11T09:09:56;7.93;;;1.98;;
27491;SDS011;14927;51.210;6.838;2022-08-11T09:12:42;5.05;;;1.67;;
27491;SDS011;14927;51.210;6.838;2022-08-11T09:15:27;3.15;;;1.75;;
27491;SDS011;14927;51.210;6.838;2022-08-11T09:18:13;4.65;;;1.77;;
27491;SDS011;14927;51.210;6.838;2022-08-11T09:21:01;3.95;;;1.73;;
27491;SDS011;14927;51.210;6.838;2022-08-11T09:23:46;3.03;;;1.40;;
27491;SDS011;14927;51.210;6.838;2022-08-11T09:26:51;4.68;;;1.60;;
27491;SDS011;14927;51.210;6.838;2022-08-11T09:29:42;5.60;;;1.60;;
27491;SDS011;14927;51.210;6.838;2022-08-11T09:32:28;4.72;;;1.65;;
27491;SDS011;14927;51.210;6.838;2022-08-11T09:35:14;4.65;;;2.75;;
27491;SDS011;14927;51.210;6.838;2022-08-11T09:38:01;3.17;;;1.77;;
27491;SDS011;14927;51.210;6.838;2022-08-11T09:41:07;56.55;;;6.47;;
27491;SDS011;14927;51.210;6.838;2022-08-11T09:43:52;5.10;;;1.88;;
27491;SDS011;14927;51.210;6.838;2022-08-11T09:46:55;4.78;;;1.73;;
27491;SDS011;14927;51.210;6.838;2022-08-11T09:49:42;7.75;;;1.42;;
27491;SDS011;14927;51.210;6.838;2022-08-11T09:52:29;11.88;;;2.25;;
27491;SDS011;14927;51.210;6.838;2022-08-11T09:55:19;3.30;;;1.80;;
27491;SDS011;14927;51.210;6.838;2022-08-11T09:58:03;5.22;;;1.65;;
27491;SDS011;14927;51.210;6.838;2022-08-11T10:00:59;3.53;;;1.40;;
27491;SDS011;14927;51.210;6.838;2022-08-11T10:03:45;5.00;;;1.85;;
27491;SDS011;14927;51.210;6.838;2022-08-11T10:06:31;2.70;;;1.42;;
27491;SDS011;14927;51.210;6.838;2022-08-11T10:09:54;1.88;;;1.50;;
27491;SDS011;14927;51.210;6.838;2022-08-11T10:12:46;4.00;;;1.63;;
27491;SDS011;14927;51.210;6.838;2022-08-11T10:15:39;5.22;;;1.65;;
27491;SDS011;14927;51.210;6.838;2022-08-11T10:24:26;7.80;;;2.00;;
27491;SDS011;14927;51.210;6.838;2022-08-11T10:27:30;4.90;;;1.50;;
27491;SDS011;14927;51.210;6.838;2022-08-11T10:30:15;7.75;;;1.48;;
27491;SDS011;14927;51.210;6.838;2022-08-11T10:33:19;5.00;;;2.05;;
27491;SDS011;14927;51.210;6.838;2022-08-11T10:36:23;1.92;;;1.40;;
27491;SDS011;14927;51.210;6.838;2022-08-11T10:39:09;2.75;;;1.40;;
27491;SDS011;14927;51.210;6.838;2022-08-11T10:42:00;5.25;;;1.48;;
27491;SDS011;14927;51.210;6.838;2022-08-11T10:45:05;3.47;;;1.50;;
27491;SDS011;14927;51.210;6.838;2022-08-11T10:48:11;2.45;;;1.30;;
27491;SDS011;14927;51.210;6.838;2022-08-11T10:50:56;2.50;;;1.17;;
27491;SDS011;14927;51.210;6.838;2022-08-11T10:53:57;2.53;;;1.60;;
27491;SDS011;14927;51.210;6.838;2022-08-11T10:57:01;1.50;;;1.30;;
27491;SDS011;14927;51.210;6.838;2022-08-11T11:00:04;7.60;;;1.52;;
27491;SDS011;14927;51.210;6.838;2022-08-11T11:02:51;10.98;;;1.73;;
27491;SDS011;14927;51.210;6.838;2022-08-11T11:05:36;1.73;;;1.58;;
27491;SDS011;14927;51.210;6.838;2022-08-11T11:08:23;3.78;;;1.80;;
27491;SDS011;14927;51.210;6.838;2022-08-11T11:11:36;9.05;;;1.92;;
27491;SDS011;14927;51.210;6.838;2022-08-11T11:14:41;3.33;;;1.65;;
27491;SDS011;14927;51.210;6.838;2022-08-11T11:17:55;3.97;;;1.60;;
27491;SDS011;14927;51.210;6.838;2022-08-11T11:20:52;3.05;;;1.80;;
27491;SDS011;14927;51.210;6.838;2022-08-11T11:24:05;2.72;;;1.40;;
27491;SDS011;14927;51.210;6.838;2022-08-11T11:27:31;5.22;;;1.10;;
27491;SDS011;14927;51.210;6.838;2022-08-11T11:30:54;5.10;;;1.58;;
27491;SDS011;14927;51.210;6.838;2022-08-11T11:33:52;2.20;;;1.48;;
27491;SDS011;14927;51.210;6.838;2022-08-11T11:37:00;5.82;;;1.80;;
27491;SDS011;14927;51.210;6.838;2022-08-11T11:39:46;2.63;;;1.38;;
27491;SDS011;14927;51.210;6.838;2022-08-11T11:42:31;2.60;;;1.85;;
27491;SDS011;14927;51.210;6.838;2022-08-11T11:45:17;6.35;;;1.80;;
27491;SDS011;14927;51.210;6.838;2022-08-11T11:48:04;4.43;;;1.30;;
27491;SDS011;14927;51.210;6.838;2022-08-11T11:50:49;5.22;;;1.45;;
27491;SDS011;14927;51.210;6.838;2022-08-11T11:53:34;3.22;;;1.38;;
27491;SDS011;14927;51.210;6.838;2022-08-11T11:56:20;2.70;;;1.10;;
27491;SDS011;14927;51.210;6.838;2022-08-11T11:59:06;6.00;;;1.15;;
27491;SDS011;14927;51.210;6.838;2022-08-11T12:02:12;1.20;;;1.10;;
27491;SDS011;14927;51.210;6.838;2022-08-11T12:04:58;8.30;;;1.38;;
27491;SDS011;14927;51.210;6.838;2022-08-11T12:07:44;4.68;;;1.58;;
27491;SDS011;14927;51.210;6.838;2022-08-11T12:10:49;2.20;;;1.40;;
27491;SDS011;14927;51.210;6.838;2022-08-11T12:13:57;2.10;;;1.10;;
27491;SDS011;14927;51.210;6.838;2022-08-11T12:16:46;3.55;;;1.50;;
27491;SDS011;14927;51.210;6.838;2022-08-11T12:19:32;2.78;;;1.30;;
27491;SDS011;14927;51.210;6.838;2022-08-11T12:22:17;7.80;;;1.80;;
27491;SDS011;14927;51.210;6.838;2022-08-11T12:25:22;1.83;;;1.48;;
27491;SDS011;14927;51.210;6.838;2022-08-11T12:28:45;2.08;;;1.20;;
27491;SDS011;14927;51.210;6.838;2022-08-11T12:31:34;2.47;;;1.30;;
27491;SDS011;14927;51.210;6.838;2022-08-11T12:34:21;3.05;;;1.50;;
27491;SDS011;14927;51.210;6.838;2022-08-11T12:37:07;3.15;;;1.50;;
27491;SDS011;14927;51.210;6.838;2022-08-11T12:40:00;3.60;;;1.20;;
27491;SDS011;14927;51.210;6.838;2022-08-11T12:43:14;4.28;;;1.73;;
27491;SDS011;14927;51.210;6.838;2022-08-11T12:46:21;3.67;;;1.75;;
27491;SDS011;14927;51.210;6.838;2022-08-11T12:49:14;4.03;;;1.70;;
27491;SDS011;14927;51.210;6.838;2022-08-11T12:52:24;3.83;;;1.60;;
27491;SDS011;14927;51.210;6.838;2022-08-11T12:55:14;3.78;;;1.30;;
27491;SDS011;14927;51.210;6.838;2022-08-11T12:58:20;3.50;;;1.35;;
27491;SDS011;14927;51.210;6.838;2022-08-11T13:01:05;6.13;;;1.20;;
27491;SDS011;14927;51.210;6.838;2022-08-11T13:04:09;3.90;;;1.33;;
27491;SDS011;14927;51.210;6.838;2022-08-11T13:07:13;3.20;;;1.45;;
27491;SDS011;14927;51.210;6.838;2022-08-11T13:10:00;3.50;;;1.13;;
27491;SDS011;14927;51.210;6.838;2022-08-11T13:12:49;3.10;;;1.52;;
27491;SDS011;14927;51.210;6.838;2022-08-11T13:15:34;2.63;;;1.10;;
27491;SDS011;14927;51.210;6.838;2022-08-11T13:18:24;5.28;;;1.40;;
27491;SDS011;14927;51.210;6.838;2022-08-11T13:21:13;3.03;;;1.45;;
27491;SDS011;14927;51.210;6.838;2022-08-11T13:23:59;1.88;;;1.33;;
27491;SDS011;14927;51.210;6.838;2022-08-11T13:26:45;4.60;;;1.60;;
27491;SDS011;14927;51.210;6.838;2022-08-11T13:29:32;5.30;;;1.55;;
27491;SDS011;14927;51.210;6.838;2022-08-11T13:32:19;3.30;;;1.60;;
27491;SDS011;14927;51.210;6.838;2022-08-11T13:35:04;3.78;;;1.55;;
27491;SDS011;14927;51.210;6.838;2022-08-11T13:37:50;2.10;;;1.00;;
27491;SDS011;14927;51.210;6.838;2022-08-11T13:40:35;1.40;;;1.10;;
27491;SDS011;14927;51.210;6.838;2022-08-11T13:43:20;3.15;;;1.13;;
27491;SDS011;14927;51.210;6.838;2022-08-11T13:46:08;2.47;;;1.48;;
27491;SDS011;14927;51.210;6.838;2022-08-11T13:49:03;5.63;;;1.50;;
27491;SDS011;14927;51.210;6.838;2022-08-11T13:51:56;6.25;;;1.27;;
27491;SDS011;14927;51.210;6.838;2022-08-11T13:54:42;5.80;;;1.30;;
27491;SDS011;14927;51.210;6.838;2022-08-11T13:57:33;15.20;;;1.90;;
27491;SDS011;14927;51.210;6.838;2022-08-11T14:00:19;4.18;;;1.60;;
27491;SDS011;14927;51.210;6.838;2022-08-11T14:03:05;2.38;;;1.10;;
27491;SDS011;14927;51.210;6.838;2022-08-11T14:05:58;3.20;;;1.40;;
27491;SDS011;14927;51.210;6.838;2022-08-11T14:08:46;3.67;;;1.63;;
27491;SDS011;14927;51.210;6.838;2022-08-11T14:11:33;5.68;;;1.90;;
27491;SDS011;14927;51.210;6.838;2022-08-11T14:14:37;7.85;;;1.38;;
27491;SDS011;14927;51.210;6.838;2022-08-11T14:17:25;3.92;;;1.65;;
27491;SDS011;14927;51.210;6.838;2022-08-11T14:20:13;4.93;;;1.80;;
27491;SDS011;14927;51.210;6.838;2022-08-11T14:25:48;8.45;;;1.30;;
27491;SDS011;14927;51.210;6.838;2022-08-11T14:28:53;2.53;;;1.60;;
27491;SDS011;14927;51.210;6.838;2022-08-11T14:31:53;1.23;;;1.08;;
27491;SDS011;14927;51.210;6.838;2022-08-11T14:34:41;3.17;;;1.55;;
27491;SDS011;14927;51.210;6.838;2022-08-11T14:37:27;3.50;;;1.35;;
27491;SDS011;14927;51.210;6.838;2022-08-11T14:40:12;5.15;;;1.45;;
27491;SDS011;14927;51.210;6.838;2022-08-11T14:43:17;1.77;;;1.27;;
27491;SDS011;14927;51.210;6.838;2022-08-11T14:46:21;5.72;;;1.67;;
27491;SDS011;14927;51.210;6.838;2022-08-11T14:49:25;8.07;;;2.22;;
27491;SDS011;14927;51.210;6.838;2022-08-11T14:52:15;1.30;;;1.02;;
27491;SDS011;14927;51.210;6.838;2022-08-11T14:55:03;5.55;;;1.73;;
27491;SDS011;14927;51.210;6.838;2022-08-11T14:58:14;5.10;;;1.25;;
27491;SDS011;14927;51.210;6.838;2022-08-11T15:01:01;10.38;;;1.90;;
27491;SDS011;14927;51.210;6.838;2022-08-11T15:04:07;2.85;;;1.50;;
27491;SDS011;14927;51.210;6.838;2022-08-11T15:06:51;6.78;;;1.50;;
27491;SDS011;14927;51.210;6.838;2022-08-11T15:09:37;4.43;;;1.73;;
27491;SDS011;14927;51.210;6.838;2022-08-11T15:12:28;4.28;;;1.50;;
27491;SDS011;14927;51.210;6.838;2022-08-11T15:15:15;4.10;;;1.23;;
27491;SDS011;14927;51.210;6.838;2022-08-11T15:18:20;2.35;;;1.30;;
27491;SDS011;14927;51.210;6.838;2022-08-11T15:21:09;2.80;;;1.25;;
27491;SDS011;14927;51.210;6.838;2022-08-11T15:24:12;3.92;;;1.55;;
27491;SDS011;14927;51.210;6.838;2022-08-11T15:27:08;9.32;;;1.60;;
27491;SDS011;14927;51.210;6.838;2022-08-11T15:30:15;7.07;;;1.50;;
27491;SDS011;14927;51.210;6.838;2022-08-11T15:33:19;4.78;;;1.77;;
27491;SDS011;14927;51.210;6.838;2022-08-11T15:36:26;7.28;;;1.67;;
27491;SDS011;14927;51.210;6.838;2022-08-11T15:45:55;7.05;;;1.75;;
27491;SDS011;14927;51.210;6.838;2022-08-11T15:48:50;3.83;;;1.52;;
27491;SDS011;14927;51.210;6.838;2022-08-11T15:51:47;5.60;;;1.13;;
27491;SDS011;14927;51.210;6.838;2022-08-11T15:54:40;9.55;;;1.40;;
27491;SDS011;14927;51.210;6.838;2022-08-11T15:57:26;8.38;;;2.00;;
27491;SDS011;14927;51.210;6.838;2022-08-11T16:00:31;2.60;;;1.70;;
27491;SDS011;14927;51.210;6.838;2022-08-11T16:03:44;2.72;;;1.23;;
27491;SDS011;14927;51.210;6.838;2022-08-11T16:06:56;5.38;;;1.63;;
27491;SDS011;14927;51.210;6.838;2022-08-11T16:09:45;4.55;;;1.80;;
27491;SDS011;14927;51.210;6.838;2022-08-11T16:12:40;4.80;;;1.40;;
27491;SDS011;14927;51.210;6.838;2022-08-11T16:15:51;5.43;;;1.50;;
27491;SDS011;14927;51.210;6.838;2022-08-11T16:18:57;7.32;;;1.95;;
27491;SDS011;14927;51.210;6.838;2022-08-11T16:21:44;4.07;;;1.33;;
27491;SDS011;14927;51.210;6.838;2022-08-11T16:24:34;5.47;;;2.00;;
27491;SDS011;14927;51.210;6.838;2022-08-11T16:27:23;4.55;;;2.13;;
27491;SDS011;14927;51.210;6.838;2022-08-11T16:30:18;6.93;;;1.70;;
27491;SDS011;14927;51.210;6.838;2022-08-11T16:33:07;4.43;;;1.60;;
27491;SDS011;14927;51.210;6.838;2022-08-11T16:35:54;4.10;;;1.63;;
27491;SDS011;14927;51.210;6.838;2022-08-11T16:38:59;4.97;;;1.67;;
27491;SDS011;14927;51.210;6.838;2022-08-11T16:41:46;4.25;;;1.50;;
27491;SDS011;14927;51.210;6.838;2022-08-11T16:44:51;4.07;;;1.85;;
27491;SDS011;14927;51.210;6.838;2022-08-11T16:47:56;4.22;;;1.60;;
27491;SDS011;14927;51.210;6.838;2022-08-11T16:50:41;3.83;;;1.50;;
27491;SDS011;14927;51.210;6.838;2022-08-11T16:53:27;2.67;;;1.73;;
27491;SDS011;14927;51.210;6.838;2022-08-11T16:56:23;4.70;;;1.90;;
27491;SDS011;14927;51.210;6.838;2022-08-11T16:59:18;6.80;;;1.67;;
27491;SDS011;14927;51.210;6.838;2022-08-11T17:02:16;5.45;;;1.88;;
27491;SDS011;14927;51.210;6.838;2022-08-11T17:05:24;4.28;;;1.75;;
27491;SDS011;14927;51.210;6.838;2022-08-11T17:08:28;4.30;;;1.58;;
27491;SDS011;14927;51.210;6.838;2022-08-11T17:11:45;3.15;;;1.40;;
27491;SDS011;14927;51.210;6.838;2022-08-11T17:14:55;3.17;;;1.55;;
27491;SDS011;14927;51.210;6.838;2022-08-11T17:17:43;2.72;;;1.48;;
27491;SDS011;14927;51.210;6.838;2022-08-11T17:20:29;6.85;;;1.65;;
27491;SDS011;14927;51.210;6.838;2022-08-11T17:23:14;8.10;;;1.80;;
27491;SDS011;14927;51.210;6.838;2022-08-11T17:26:25;21.77;;;2.05;;
27491;SDS011;14927;51.210;6.838;2022-08-11T17:29:39;2.83;;;1.52;;
27491;SDS011;14927;51.210;6.838;2022-08-11T17:32:38;5.90;;;2.15;;
27491;SDS011;14927;51.210;6.838;2022-08-11T17:35:45;4.53;;;1.48;;
27491;SDS011;14927;51.210;6.838;2022-08-11T17:38:31;5.90;;;1.55;;
27491;SDS011;14927;51.210;6.838;2022-08-11T17:41:17;5.38;;;1.50;;
27491;SDS011;14927;51.210;6.838;2022-08-11T17:44:23;4.10;;;1.80;;
27491;SDS011;14927;51.210;6.838;2022-08-11T17:47:30;7.00;;;1.70;;
27491;SDS011;14927;51.210;6.838;2022-08-11T17:50:35;2.25;;;1.65;;
27491;SDS011;14927;51.210;6.838;2022-08-11T17:53:21;3.13;;;1.55;;
27491;SDS011;14927;51.210;6.838;2022-08-11T17:56:26;4.53;;;1.73;;
27491;SDS011;14927;51.210;6.838;2022-08-11T17:59:33;3.53;;;2.22;;
27491;SDS011;14927;51.210;6.838;2022-08-11T18:05:43;5.10;;;2.13;;
27491;SDS011;14927;51.210;6.838;2022-08-11T18:08:32;4.57;;;1.67;;
27491;SDS011;14927;51.210;6.838;2022-08-11T18:11:39;2.70;;;2.00;;
27491;SDS011;14927;51.210;6.838;2022-08-11T18:14:47;4.10;;;2.05;;
27491;SDS011;14927;51.210;6.838;2022-08-11T18:20:56;4.78;;;2.17;;
27491;SDS011;14927;51.210;6.838;2022-08-11T18:24:02;6.15;;;1.77;;
27491;SDS011;14927;51.210;6.838;2022-08-11T18:27:12;4.25;;;1.50;;
27491;SDS011;14927;51.210;6.838;2022-08-11T18:30:18;2.60;;;1.60;;
27491;SDS011;14927;51.210;6.838;2022-08-11T18:33:23;4.45;;;1.90;;
27491;SDS011;14927;51.210;6.838;2022-08-11T18:36:31;2.78;;;1.77;;
27491;SDS011;14927;51.210;6.838;2022-08-11T18:39:41;1.95;;;1.77;;
27491;SDS011;14927;51.210;6.838;2022-08-11T18:42:52;7.10;;;2.33;;
27491;SDS011;14927;51.210;6.838;2022-08-11T18:46:00;2.15;;;1.70;;
27491;SDS011;14927;51.210;6.838;2022-08-11T18:49:11;2.33;;;1.55;;
27491;SDS011;14927;51.210;6.838;2022-08-11T18:52:19;7.53;;;1.85;;
27491;SDS011;14927;51.210;6.838;2022-08-11T18:55:24;7.53;;;1.88;;
27491;SDS011;14927;51.210;6.838;2022-08-11T18:58:28;8.20;;;2.22;;
27491;SDS011;14927;51.210;6.838;2022-08-11T19:01:35;5.43;;;1.98;;
27491;SDS011;14927;51.210;6.838;2022-08-11T19:04:39;4.30;;;1.92;;
27491;SDS011;14927;51.210;6.838;2022-08-11T19:07:45;3.78;;;2.10;;
27491;SDS011;14927;51.210;6.838;2022-08-11T19:10:50;6.10;;;2.33;;
27491;SDS011;14927;51.210;6.838;2022-08-11T19:13:55;4.57;;;1.70;;
27491;SDS011;14927;51.210;6.838;2022-08-11T19:17:00;7.80;;;1.95;;
27491;SDS011;14927;51.210;6.838;2022-08-11T19:20:06;3.35;;;1.95;;
27491;SDS011;14927;51.210;6.838;2022-08-11T19:23:15;10.80;;;1.98;;
27491;SDS011;14927;51.210;6.838;2022-08-11T19:26:30;4.97;;;1.88;;
27491;SDS011;14927;51.210;6.838;2022-08-11T19:29:35;6.60;;;2.15;;
27491;SDS011;14927;51.210;6.838;2022-08-11T19:32:40;7.45;;;1.65;;
27491;SDS011;14927;51.210;6.838;2022-08-11T19:35:44;8.88;;;2.40;;
27491;SDS011;14927;51.210;6.838;2022-08-11T19:38:48;3.28;;;1.75;;
27491;SDS011;14927;51.210;6.838;2022-08-11T19:41:53;3.58;;;2.00;;
27491;SDS011;14927;51.210;6.838;2022-08-11T19:44:58;5.55;;;2.20;;
27491;SDS011;14927;51.210;6.838;2022-08-11T19:48:04;5.18;;;2.00;;
27491;SDS011;14927;51.210;6.838;2022-08-11T19:51:08;2.42;;;1.70;;
27491;SDS011;14927;51.210;6.838;2022-08-11T19:54:13;3.15;;;1.92;;
27491;SDS011;14927;51.210;6.838;2022-08-11T19:57:18;4.03;;;1.95;;
27491;SDS011;14927;51.210;6.838;2022-08-11T20:00:23;3.47;;;1.85;;
27491;SDS011;14927;51.210;6.838;2022-08-11T20:03:26;4.28;;;1.67;;
27491;SDS011;14927;51.210;6.838;2022-08-11T20:06:29;4.32;;;1.75;;
27491;SDS011;14927;51.210;6.838;2022-08-11T20:09:34;3.47;;;1.73;;
27491;SDS011;14927;51.210;6.838;2022-08-11T20:12:38;7.93;;;2.03;;
27491;SDS011;14927;51.210;6.838;2022-08-11T20:15:42;6.35;;;2.13;;
27491;SDS011;14927;51.210;6.838;2022-08-11T20:18:46;6.80;;;2.13;;
27491;SDS011;14927;51.210;6.838;2022-08-11T20:21:52;6.20;;;1.83;;
27491;SDS011;14927;51.210;6.838;2022-08-11T20:24:58;2.60;;;2.00;;
27491;SDS011;14927;51.210;6.838;2022-08-11T20:28:02;2.67;;;2.22;;
27491;SDS011;14927;51.210;6.838;2022-08-11T20:31:07;3.20;;;2.15;;
27491;SDS011;14927;51.210;6.838;2022-08-11T20:34:12;5.80;;;2.20;;
27491;SDS011;14927;51.210;6.838;2022-08-11T20:37:17;4.28;;;2.03;;
27491;SDS011;14927;51.210;6.838;2022-08-11T20:40:22;6.38;;;2.25;;
27491;SDS011;14927;51.210;6.838;2022-08-11T20:43:27;2.97;;;2.05;;
27491;SDS011;14927;51.210;6.838;2022-08-11T20:46:31;2.70;;;1.58;;
27491;SDS011;14927;51.210;6.838;2022-08-11T20:49:36;3.13;;;1.77;;
27491;SDS011;14927;51.210;6.838;2022-08-11T20:52:39;3.03;;;1.73;;
27491;SDS011;14927;51.210;6.838;2022-08-11T20:55:43;12.80;;;2.22;;
27491;SDS011;14927;51.210;6.838;2022-08-11T20:58:47;5.90;;;2.17;;